This is the latest recevied weather packets stored in our database for station/object n3uvr. If no packets are shown the sender has not sent any weather packets the latest 10 day(s).
| Time | Temp. | Humidity | Pressure | Rain* | Wind** | Luminosity | Snow |
|---|---|---|---|---|---|---|---|
| 1777870465 | 7.78° C | 63% | 1010.7 hPa | 0 mm | - | 0 W/m² | - |
| 1777869875 | 8.33° C | 61% | 1010.7 hPa | 0 mm | - | 0 W/m² | - |
| 1777868684 | 8.33° C | 60% | 1010.6 hPa | 0 mm | - | 0 W/m² | - |
| 1777868085 | 8.33° C | 59% | 1010.6 hPa | 0 mm | - | 0 W/m² | - |
| 1777867505 | 8.33° C | 58% | 1010.5 hPa | 0 mm | - | 0 W/m² | - |
| 1777866908 | 8.33° C | 58% | 1010.6 hPa | 0 mm | - | 0 W/m² | - |
| 1777866304 | 8.33° C | 58% | 1010.5 hPa | 0 mm | - | 0 W/m² | - |
| 1777865680 | 8.89° C | 58% | 1010.6 hPa | 0 mm | - | 0 W/m² | - |
| 1777865068 | 8.89° C | 57% | 1010.5 hPa | 0 mm | - | 0 W/m² | - |
| 1777863245 | 8.89° C | 58% | 1010.5 hPa | 0 mm | - | 0 W/m² | - |
| 1777862648 | 8.89° C | 57% | 1010.6 hPa | 0 mm | - | 0 W/m² | - |
| 1777862043 | 8.89° C | 58% | 1010.6 hPa | 0 mm | - | 0 W/m² | - |
| 1777860855 | 9.44° C | 58% | 1010.4 hPa | 0 mm | - | 0 W/m² | - |
| 1777859039 | 10.56° C | 53% | 1010.1 hPa | 0 mm | - | 0 W/m² | - |
| 1777857252 | 11.11° C | 50% | 1010 hPa | 0 mm | - | 0 W/m² | - |
| 1777856642 | 11.67° C | 51% | 1009.9 hPa | 0 mm | - | 0 W/m² | - |
| 1777855423 | 12.22° C | 46% | 1009.6 hPa | 0 mm | - | 0 W/m² | - |
| 1777854237 | 12.78° C | 44% | 1009.5 hPa | 0 mm | - | 5 W/m² | - |
| 1777853632 | 12.78° C | 43% | 1009.5 hPa | 0 mm | - | 9 W/m² | - |
| 1777853027 | 13.33° C | 42% | 1009.5 hPa | 0 mm | - | 18 W/m² | - |
| 1777852417 | 13.33° C | 42% | 1009.4 hPa | 0 mm | - | 14 W/m² | - |
| 1777851794 | 13.33° C | 40% | 1009.4 hPa | 0 mm | - | 19 W/m² | - |
| 1777850011 | 14.44° C | 39% | 1009.4 hPa | 0 mm | - | 40 W/m² | - |
| 1777849395 | 14.44° C | 40% | 1009.2 hPa | 0 mm | - | 33 W/m² | - |
| 1777848784 | 14.44° C | 40% | 1009.2 hPa | 0 mm | - | 53 W/m² | - |
* Rain latest hour (hover to see other rain measurements)
** Current wind speed in m/s (hover to see current wind gust speed)